Larsen, Wisconsin
Current Conditions -  °F | °C
As of 12:45 PM on Friday 21 Nov 2014 (Local Time) from KATW Reporting Station
Broken Clouds Broken Clouds  
Wind Chill: 12°   Ceiling: 12000
Heat Index: 25°   Visibility: 10mi
Dew Point:   Wind: 15mph
Humidity: 46%   Direction: 190°S
Pressure: 30.28"   Gusts: NA
Location:  44.19°N, 88.62°W
Report Text: KATW 211845Z 19013KT 10SM BKN120 M04/M14 A3028
Loading
Personal Weather Stations






























Interactive Weather Map New forecast layout! Learn more

10-Day Weather Forecast

Advertisements
Track Severe Weather on mobile